createdAt,value
2017-12-12T00:00:49.108Z,18.30
2017-12-12T00:03:18.076Z,17.25
2017-12-12T00:05:45.536Z,17.27
2017-12-12T00:08:13.017Z,16.45
2017-12-12T00:10:40.473Z,15.85
2017-12-12T00:13:07.928Z,16.00
2017-12-12T00:15:35.392Z,13.25
2017-12-12T00:18:02.944Z,13.02
2017-12-12T00:20:30.490Z,14.35
2017-12-12T00:22:57.985Z,13.30
2017-12-12T00:25:25.477Z,13.02
2017-12-12T00:27:53.022Z,13.10
2017-12-12T00:30:20.476Z,13.43
2017-12-12T00:32:48.702Z,13.65
2017-12-12T00:35:16.173Z,13.68
2017-12-12T00:37:44.394Z,14.75
2017-12-12T00:40:11.969Z,13.90
2017-12-12T00:42:40.235Z,13.68
2017-12-12T00:45:08.484Z,13.62
2017-12-12T00:47:36.029Z,12.98
2017-12-12T00:50:04.261Z,13.00
2017-12-12T00:52:31.756Z,15.02
2017-12-12T00:54:59.276Z,14.52
2017-12-12T00:57:26.740Z,13.43
2017-12-12T00:59:54.264Z,16.10
2017-12-12T01:02:22.520Z,13.32
2017-12-12T01:04:50.789Z,13.98
2017-12-12T01:07:19.040Z,17.17
2017-12-12T01:09:47.256Z,16.12
2017-12-12T01:12:14.726Z,16.10
2017-12-12T01:14:42.180Z,19.40
2017-12-12T01:17:09.644Z,17.75
2017-12-12T01:19:37.989Z,18.40
2017-12-12T01:22:06.221Z,17.80
2017-12-12T01:24:34.096Z,13.88
2017-12-12T01:27:01.561Z,18.95
2017-12-12T01:29:29.093Z,17.85
2017-12-12T01:31:57.346Z,20.50
2017-12-12T01:34:24.889Z,17.45
2017-12-12T01:36:53.153Z,19.67
2017-12-12T01:39:21.377Z,16.95
2017-12-12T01:41:48.849Z,19.40
2017-12-12T01:44:17.077Z,17.83
2017-12-12T01:46:44.548Z,18.00
2017-12-12T01:49:12.008Z,15.02
2017-12-12T01:51:40.249Z,17.27
2017-12-12T01:54:08.485Z,16.95
2017-12-12T01:56:35.950Z,14.95
2017-12-12T01:59:03.488Z,15.15
2017-12-12T02:01:31.033Z,15.15
2017-12-12T02:03:58.505Z,15.95
2017-12-12T02:06:26.022Z,15.48
2017-12-12T02:08:53.490Z,15.45
2017-12-12T02:11:21.008Z,15.25
2017-12-12T02:13:48.463Z,15.18
2017-12-12T02:16:16.716Z,16.95
2017-12-12T02:18:44.944Z,15.82
2017-12-12T02:21:12.421Z,13.32
2017-12-12T02:23:40.652Z,14.23
2017-12-12T02:26:08.108Z,14.73
2017-12-12T02:28:35.652Z,14.82
2017-12-12T02:31:03.108Z,17.30
2017-12-12T02:33:31.334Z,17.62
2017-12-12T02:35:58.805Z,16.20
2017-12-12T02:38:27.029Z,15.27
2017-12-12T02:40:54.497Z,14.10
2017-12-12T02:43:22.039Z,14.32
2017-12-12T02:45:49.569Z,12.75
2017-12-12T02:48:17.033Z,14.38
2017-12-12T02:50:45.283Z,14.57
2017-12-12T02:53:12.838Z,14.15
2017-12-12T02:55:41.090Z,14.60
2017-12-12T02:58:08.640Z,14.25
2017-12-12T03:00:36.864Z,13.45
2017-12-12T03:03:04.346Z,11.73
2017-12-12T03:05:32.614Z,13.40
2017-12-12T03:08:00.824Z,10.90
2017-12-12T03:10:28.410Z,12.00
2017-12-12T03:12:56.704Z,12.05
2017-12-12T03:15:24.205Z,12.77
2017-12-12T03:17:51.725Z,12.80
2017-12-12T03:20:20.732Z,12.27
2017-12-12T03:22:48.968Z,10.88
2017-12-12T03:25:16.439Z,11.27
2017-12-12T03:27:44.668Z,11.57
2017-12-12T03:30:12.120Z,10.07
2017-12-12T03:32:40.389Z,10.95
2017-12-12T03:35:08.651Z,10.77
2017-12-12T03:37:36.121Z,10.45
2017-12-12T03:40:03.573Z,9.80
2017-12-12T03:42:31.032Z,11.25
2017-12-12T03:44:58.544Z,11.00
2017-12-12T03:47:25.996Z,10.30
2017-12-12T03:49:53.464Z,12.10
2017-12-12T03:52:21.036Z,11.68
2017-12-12T03:54:48.504Z,11.90
2017-12-12T03:57:16.721Z,12.95
2017-12-12T03:59:44.285Z,10.52
2017-12-12T04:02:12.504Z,13.43
2017-12-12T04:04:39.960Z,11.90
2017-12-12T04:07:07.412Z,12.52
2017-12-12T04:09:34.868Z,13.55
2017-12-12T04:12:02.415Z,13.52
2017-12-12T04:14:29.956Z,13.82
2017-12-12T04:16:57.425Z,13.50
2017-12-12T04:19:24.941Z,12.63
2017-12-12T04:21:52.404Z,12.13
2017-12-12T04:24:19.928Z,13.40
2017-12-12T04:26:48.189Z,12.43
2017-12-12T04:29:16.454Z,13.65
2017-12-12T04:31:44.708Z,12.70
2017-12-12T04:34:12.967Z,13.35
2017-12-12T04:36:41.354Z,11.60
2017-12-12T04:39:08.868Z,9.90
2017-12-12T04:41:36.417Z,12.35
2017-12-12T04:44:04.876Z,11.73
2017-12-12T04:46:32.420Z,11.80
2017-12-12T04:48:59.894Z,10.68
2017-12-12T04:51:27.351Z,8.50
2017-12-12T04:53:54.843Z,9.95
2017-12-12T04:56:22.309Z,9.90
2017-12-12T04:58:50.537Z,11.75
2017-12-12T05:01:18.005Z,12.68
2017-12-12T05:03:46.260Z,12.37
2017-12-12T05:06:14.512Z,10.18
2017-12-12T05:08:42.004Z,13.20
2017-12-12T05:11:09.472Z,12.18
2017-12-12T05:13:36.932Z,10.32
2017-12-12T05:16:04.384Z,11.90
2017-12-12T05:18:32.644Z,13.35
2017-12-12T05:21:00.092Z,12.15
2017-12-12T05:23:28.339Z,12.30
2017-12-12T05:25:55.883Z,14.02
2017-12-12T05:28:23.471Z,14.77
2017-12-12T05:30:51.692Z,12.88
2017-12-12T05:33:19.912Z,12.88
2017-12-12T05:35:47.379Z,13.05
2017-12-12T05:38:14.842Z,11.35
2017-12-12T05:40:42.293Z,9.35
2017-12-12T05:43:10.548Z,12.60
2017-12-12T05:45:38.005Z,10.20
2017-12-12T05:48:06.244Z,12.18
2017-12-12T05:50:33.702Z,9.95
2017-12-12T05:53:01.933Z,9.52
2017-12-12T05:55:29.491Z,10.50
2017-12-12T05:57:57.032Z,10.82
2017-12-12T06:00:24.579Z,10.60
2017-12-12T06:02:52.028Z,9.35
2017-12-12T06:05:20.264Z,10.85
2017-12-12T06:07:47.720Z,10.98
2017-12-12T06:10:15.174Z,11.70
2017-12-12T06:12:43.398Z,7.25
2017-12-12T06:15:10.965Z,8.07
2017-12-12T06:17:38.514Z,9.98
2017-12-12T06:20:06.764Z,7.82
2017-12-12T06:22:34.229Z,12.32
2017-12-12T06:25:02.480Z,11.30
2017-12-12T06:27:30.724Z,9.80
2017-12-12T06:29:58.282Z,11.30
2017-12-12T06:32:25.821Z,10.60
2017-12-12T06:34:53.360Z,10.65
2017-12-12T06:37:20.904Z,11.00
2017-12-12T06:39:48.361Z,10.18
2017-12-12T06:42:16.583Z,8.80
2017-12-12T06:44:44.052Z,10.35
2017-12-12T06:47:12.304Z,10.95
2017-12-12T06:49:39.847Z,11.98
2017-12-12T06:52:07.307Z,11.00
2017-12-12T06:54:35.529Z,10.85
2017-12-12T06:57:03.096Z,12.10
2017-12-12T06:59:30.544Z,11.20
2017-12-12T07:01:58.804Z,8.77
2017-12-12T07:04:27.045Z,10.60
2017-12-12T07:06:54.497Z,9.85
2017-12-12T07:09:22.041Z,11.18
2017-12-12T07:11:49.497Z,11.48
2017-12-12T07:14:17.708Z,8.60
2017-12-12T07:16:45.185Z,15.43
2017-12-12T07:19:12.716Z,9.65
2017-12-12T07:21:40.168Z,10.30
2017-12-12T07:24:08.391Z,10.32
2017-12-12T07:26:35.964Z,9.82
2017-12-12T07:29:03.424Z,10.95
2017-12-12T07:31:32.029Z,10.93
2017-12-12T07:33:59.520Z,9.98
2017-12-12T07:36:27.070Z,11.57
2017-12-12T07:38:55.291Z,12.10
2017-12-12T07:41:22.771Z,11.57
2017-12-12T07:43:50.226Z,8.57
2017-12-12T07:46:18.464Z,10.13
2017-12-12T07:48:45.912Z,9.10
2017-12-12T07:51:14.140Z,12.05
2017-12-12T07:53:41.628Z,11.18
2017-12-12T07:56:09.872Z,10.10
2017-12-12T07:58:37.415Z,10.18
2017-12-12T08:01:04.953Z,9.77
2017-12-12T08:03:32.409Z,11.10
2017-12-12T08:06:00.640Z,10.63
2017-12-12T08:08:28.101Z,8.15
2017-12-12T08:10:55.556Z,8.80
2017-12-12T08:13:23.777Z,9.80
2017-12-12T08:15:51.236Z,11.50
2017-12-12T08:18:18.787Z,11.18
2017-12-12T08:20:46.332Z,11.70
2017-12-12T08:23:14.552Z,11.55
2017-12-12T08:25:42.028Z,11.25
2017-12-12T08:28:09.576Z,12.18
2017-12-12T08:30:37.037Z,12.93
2017-12-12T08:33:05.344Z,12.60
2017-12-12T08:35:32.865Z,12.25
2017-12-12T08:38:01.194Z,9.80
2017-12-12T08:40:29.420Z,12.68
2017-12-12T08:42:56.888Z,11.95
2017-12-12T08:45:24.351Z,14.18
2017-12-12T08:47:52.572Z,14.20
2017-12-12T08:50:20.029Z,9.80
2017-12-12T08:52:47.570Z,11.88
2017-12-12T08:55:15.112Z,13.05
2017-12-12T08:57:42.565Z,13.43
2017-12-12T09:00:10.813Z,12.25
2017-12-12T09:02:38.272Z,12.73
2017-12-12T09:05:06.492Z,13.18
2017-12-12T09:07:34.062Z,12.57
2017-12-12T09:10:01.522Z,10.93
2017-12-12T09:12:29.764Z,13.45
2017-12-12T09:14:57.308Z,15.30
2017-12-12T09:17:25.568Z,10.02
2017-12-12T09:19:53.829Z,15.05
2017-12-12T09:22:22.084Z,15.95
2017-12-12T09:24:49.540Z,14.90
2017-12-12T09:27:17.771Z,12.98
2017-12-12T09:29:45.998Z,14.63
2017-12-12T09:32:13.484Z,13.07
2017-12-12T09:34:41.028Z,12.45
2017-12-12T09:37:08.572Z,13.27
2017-12-12T09:39:36.035Z,14.13
2017-12-12T09:42:04.276Z,12.55
2017-12-12T09:44:32.512Z,10.80
2017-12-12T09:46:59.976Z,10.10
2017-12-12T09:49:27.521Z,12.95
2017-12-12T09:51:55.064Z,13.85
2017-12-12T09:54:22.524Z,9.98
2017-12-12T09:56:50.745Z,15.27
2017-12-12T09:59:18.217Z,11.82
2017-12-12T10:01:46.439Z,13.75
2017-12-12T10:04:13.906Z,14.18
2017-12-12T10:06:42.218Z,12.77
2017-12-12T10:09:09.679Z,14.50
2017-12-12T10:11:37.162Z,13.02
2017-12-12T10:14:05.385Z,12.45
2017-12-12T10:16:32.840Z,12.82
2017-12-12T10:19:00.297Z,12.75
2017-12-12T10:21:28.561Z,12.75
2017-12-12T10:23:56.822Z,14.50
2017-12-12T10:26:25.049Z,9.63
2017-12-12T10:28:52.620Z,14.07
2017-12-12T10:31:20.075Z,12.23
2017-12-12T10:33:48.320Z,15.10
2017-12-12T10:36:15.863Z,10.80
2017-12-12T10:38:43.324Z,14.25
2017-12-12T10:41:11.564Z,9.80
2017-12-12T10:43:39.104Z,14.32
2017-12-12T10:46:06.652Z,16.73
2017-12-12T10:48:34.188Z,16.83
2017-12-12T10:51:01.649Z,17.12
2017-12-12T10:53:29.912Z,15.27
2017-12-12T10:55:58.141Z,15.85
2017-12-12T10:58:25.616Z,15.38
2017-12-12T11:00:53.856Z,14.68
2017-12-12T11:03:21.319Z,15.38
2017-12-12T11:05:49.553Z,13.75
2017-12-12T11:08:17.099Z,17.17
2017-12-12T11:10:44.648Z,13.77
2017-12-12T11:13:12.192Z,15.70
2017-12-12T11:15:40.421Z,16.15
2017-12-12T11:18:07.897Z,17.90
2017-12-12T11:20:36.129Z,17.15
2017-12-12T11:23:03.594Z,19.60
2017-12-12T11:25:31.044Z,19.30
2017-12-12T11:27:59.304Z,19.48
2017-12-12T11:30:27.556Z,20.65
2017-12-12T11:32:55.016Z,20.55
2017-12-12T11:35:23.292Z,20.10
2017-12-12T11:37:50.800Z,18.80
2017-12-12T11:40:19.046Z,19.30
2017-12-12T11:42:46.497Z,20.73
2017-12-12T11:45:13.992Z,20.65
2017-12-12T11:47:41.440Z,18.90
2017-12-12T11:50:08.900Z,19.62
2017-12-12T11:52:36.368Z,18.12
2017-12-12T11:55:04.596Z,17.52
2017-12-12T11:57:32.047Z,17.80
2017-12-12T11:59:59.511Z,19.30
2017-12-12T12:02:26.978Z,19.65
2017-12-12T12:04:54.451Z,19.08
2017-12-12T12:07:21.904Z,19.30
2017-12-12T12:09:49.486Z,14.73
2017-12-12T12:12:16.932Z,21.33
2017-12-12T12:14:45.153Z,19.25
2017-12-12T12:17:12.621Z,16.70
2017-12-12T12:19:40.166Z,18.25
2017-12-12T12:22:07.704Z,15.15
2017-12-12T12:24:35.159Z,16.65
2017-12-12T12:27:03.397Z,17.20
2017-12-12T12:29:30.848Z,18.60
2017-12-12T12:31:58.407Z,16.23
2017-12-12T12:34:26.644Z,17.17
2017-12-12T12:36:54.101Z,15.02
2017-12-12T12:39:22.322Z,13.38
2017-12-12T12:41:49.780Z,11.48
2017-12-12T12:44:17.236Z,14.87
2017-12-12T12:46:44.780Z,14.90
2017-12-12T12:49:12.233Z,14.02
2017-12-12T12:51:40.484Z,14.77
2017-12-12T12:54:08.708Z,16.60
2017-12-12T12:56:36.157Z,15.15
2017-12-12T12:59:03.620Z,15.88
2017-12-12T13:01:31.085Z,16.92
2017-12-12T13:03:59.326Z,19.17
2017-12-12T13:06:26.872Z,19.45
2017-12-12T13:08:54.331Z,20.40
2017-12-12T13:11:22.556Z,19.67
2017-12-12T13:13:50.009Z,19.95
2017-12-12T13:16:17.490Z,18.00
2017-12-12T13:18:44.936Z,18.55
2017-12-12T13:21:12.396Z,20.37
2017-12-12T13:23:39.877Z,21.40
2017-12-12T13:26:07.336Z,20.48
2017-12-12T13:28:35.582Z,18.65
2017-12-12T13:31:03.042Z,17.35
2017-12-12T13:33:31.308Z,13.45
2017-12-12T13:35:58.832Z,17.92
2017-12-12T13:38:26.364Z,21.10
2017-12-12T13:40:53.914Z,19.35
2017-12-12T13:43:21.384Z,19.48
2017-12-12T13:45:48.900Z,20.60
2017-12-12T13:48:17.129Z,19.00
2017-12-12T13:50:44.601Z,20.92
2017-12-12T13:53:12.840Z,22.90
2017-12-12T13:55:40.409Z,23.40
2017-12-12T13:58:08.623Z,21.42
2017-12-12T14:00:36.084Z,20.23
2017-12-12T14:03:03.653Z,22.98
2017-12-12T14:05:31.112Z,20.05
2017-12-12T14:07:58.640Z,20.90
2017-12-12T14:10:26.864Z,21.55
2017-12-12T14:12:54.336Z,18.95
2017-12-12T14:15:22.593Z,19.58
2017-12-12T14:17:50.136Z,17.33
2017-12-12T14:20:17.596Z,21.33
2017-12-12T14:22:45.057Z,22.05
2017-12-12T14:25:12.568Z,20.48
2017-12-12T14:27:40.824Z,21.33
2017-12-12T14:30:09.041Z,21.17
2017-12-12T14:32:36.524Z,21.95
2017-12-12T14:35:04.743Z,17.85
2017-12-12T14:37:32.226Z,21.85
2017-12-12T14:40:00.448Z,21.05
2017-12-12T14:42:27.904Z,20.02
2017-12-12T14:44:55.468Z,22.20
2017-12-12T14:47:22.925Z,21.05
2017-12-12T14:49:51.168Z,20.30
2017-12-12T14:52:19.384Z,21.02
2017-12-12T14:54:46.847Z,16.67
2017-12-12T14:57:14.414Z,18.80
2017-12-12T14:59:41.877Z,19.42
2017-12-12T15:02:10.120Z,20.20
2017-12-12T15:04:38.353Z,20.95
2017-12-12T15:07:06.592Z,23.98
2017-12-12T15:09:34.070Z,22.60
2017-12-12T15:12:01.529Z,19.77
2017-12-12T15:14:28.988Z,22.40
2017-12-12T15:16:56.456Z,21.95
2017-12-12T15:19:23.921Z,19.25
2017-12-12T15:21:51.404Z,18.10
2017-12-12T15:24:18.864Z,19.80
2017-12-12T15:26:46.320Z,19.58
2017-12-12T15:29:13.830Z,18.80
2017-12-12T15:31:42.054Z,17.48
2017-12-12T15:34:09.504Z,18.02
2017-12-12T15:36:36.964Z,19.50
2017-12-12T15:39:04.520Z,19.90
2017-12-12T15:41:32.010Z,16.65
2017-12-12T15:43:59.476Z,19.27
2017-12-12T15:46:27.452Z,18.87
2017-12-12T15:48:54.908Z,19.40
2017-12-12T15:51:22.364Z,19.77
2017-12-12T15:56:41.655Z,19.70
2017-12-12T15:59:09.891Z,20.70
2017-12-12T16:01:37.351Z,21.00
2017-12-12T16:04:05.571Z,21.40
2017-12-12T16:06:33.046Z,19.73
2017-12-12T16:09:01.300Z,19.33
2017-12-12T16:11:28.850Z,19.87
2017-12-12T16:13:57.100Z,17.45
2017-12-12T16:16:24.645Z,19.10
2017-12-12T16:18:52.105Z,19.02
2017-12-12T16:21:20.344Z,19.20
2017-12-12T16:23:47.888Z,21.87
2017-12-12T16:26:15.433Z,19.33
2017-12-12T16:28:42.889Z,20.98
2017-12-12T16:31:10.420Z,19.42
2017-12-12T16:33:38.679Z,19.77
2017-12-12T16:36:06.932Z,17.23
2017-12-12T16:38:34.388Z,20.80
2017-12-12T16:41:02.613Z,20.83
2017-12-12T16:43:30.076Z,21.40
2017-12-12T16:45:57.535Z,20.12
2017-12-12T16:48:25.048Z,20.55
2017-12-12T16:50:52.540Z,19.73
2017-12-12T16:53:20.084Z,21.02
2017-12-12T16:55:47.544Z,20.75
2017-12-12T16:58:15.100Z,19.77
2017-12-12T17:00:42.640Z,22.02
2017-12-12T17:03:10.102Z,22.33
2017-12-12T17:05:37.664Z,21.20
2017-12-12T17:08:05.132Z,19.02
2017-12-12T17:10:32.596Z,20.67
2017-12-12T17:13:00.056Z,19.67
2017-12-12T17:15:28.305Z,22.37
2017-12-12T17:17:55.770Z,20.30
2017-12-12T17:20:23.993Z,22.73
2017-12-12T17:22:51.472Z,21.83
2017-12-12T17:25:18.943Z,22.52
2017-12-12T17:27:46.448Z,22.92
2017-12-12T17:30:14.034Z,22.95
2017-12-12T17:32:42.253Z,22.25
2017-12-12T17:35:09.716Z,20.73
2017-12-12T17:37:37.203Z,22.77
2017-12-12T17:40:04.663Z,23.70
2017-12-12T17:42:32.894Z,22.77
2017-12-12T17:45:00.368Z,22.65
2017-12-12T17:47:28.608Z,24.23
2017-12-12T17:49:56.071Z,23.62
2017-12-12T17:52:23.572Z,23.12
2017-12-12T17:54:51.847Z,23.12
2017-12-12T17:57:20.087Z,23.00
2017-12-12T17:59:48.348Z,24.10
2017-12-12T18:02:15.987Z,24.98
2017-12-12T18:04:44.956Z,23.27
2017-12-12T18:07:12.412Z,24.48
2017-12-12T18:09:39.888Z,23.85
2017-12-12T18:12:07.420Z,22.83
2017-12-12T18:14:34.940Z,22.55
2017-12-12T18:17:03.190Z,22.15
2017-12-12T18:19:30.745Z,23.62
2017-12-12T18:21:58.995Z,23.35
2017-12-12T18:24:26.457Z,21.00
2017-12-12T18:26:54.015Z,21.92
2017-12-12T18:29:21.507Z,18.83
2017-12-12T18:31:48.970Z,20.95
2017-12-12T18:34:16.422Z,23.42
2017-12-12T18:36:44.663Z,20.45
2017-12-12T18:39:12.215Z,21.73
2017-12-12T18:41:40.439Z,21.15
2017-12-12T18:44:07.916Z,20.73
2017-12-12T18:46:35.422Z,20.00
2017-12-12T18:49:02.956Z,19.98
2017-12-12T18:51:31.210Z,18.50
2017-12-12T18:53:58.680Z,18.70
2017-12-12T18:56:26.917Z,19.52
2017-12-12T18:58:55.186Z,20.62
2017-12-12T19:01:22.720Z,21.52
2017-12-12T19:03:50.961Z,21.40
2017-12-12T19:06:18.412Z,21.98
2017-12-12T19:08:45.920Z,19.90
2017-12-12T19:11:14.189Z,20.88
2017-12-12T19:13:42.445Z,19.98
2017-12-12T19:16:10.713Z,20.65
2017-12-12T19:18:38.952Z,20.10
2017-12-12T19:21:06.423Z,20.25
2017-12-12T19:23:34.651Z,21.33
2017-12-12T19:26:02.113Z,20.45
2017-12-12T19:28:30.364Z,21.90
2017-12-12T19:30:58.622Z,21.37
2017-12-12T19:33:26.089Z,22.10
2017-12-12T19:35:53.608Z,20.50
2017-12-12T19:38:21.151Z,22.80
2017-12-12T19:40:49.403Z,21.60
2017-12-12T19:43:16.867Z,22.00
2017-12-12T19:45:45.093Z,20.30
2017-12-12T19:48:12.561Z,24.17
2017-12-12T19:50:40.794Z,22.62
2017-12-12T19:53:08.355Z,26.25
2017-12-12T19:55:35.812Z,23.92
2017-12-12T19:58:04.052Z,31.33
2017-12-12T20:00:31.508Z,27.90
2017-12-12T20:02:59.796Z,24.77
2017-12-12T20:05:27.308Z,26.83
2017-12-12T20:07:54.770Z,26.20
2017-12-12T20:10:22.315Z,26.90
2017-12-12T20:12:49.772Z,28.35
2017-12-12T20:15:17.991Z,25.80
2017-12-12T20:17:45.560Z,26.90
2017-12-12T20:20:13.795Z,25.35
2017-12-12T20:22:41.359Z,24.40
2017-12-12T20:25:08.820Z,27.00
2017-12-12T20:27:37.162Z,25.50
2017-12-12T20:30:04.713Z,22.80
2017-12-12T20:32:32.945Z,29.35
2017-12-12T20:35:00.396Z,25.80
2017-12-12T20:37:27.872Z,27.87
2017-12-12T20:39:55.393Z,28.30
2017-12-12T20:42:22.922Z,25.92
2017-12-12T20:44:50.379Z,26.73
2017-12-12T20:47:17.848Z,26.60
2017-12-12T20:49:45.360Z,23.35
2017-12-12T20:52:12.912Z,24.92
2017-12-12T20:54:41.152Z,21.48
2017-12-12T20:57:08.601Z,25.40
2017-12-12T20:59:36.064Z,26.12
2017-12-12T21:02:04.359Z,22.60
2017-12-12T21:04:31.825Z,23.08
2017-12-12T21:07:04.924Z,22.85
2017-12-12T21:09:32.391Z,25.05
2017-12-12T21:11:59.855Z,26.58
2017-12-12T21:14:28.077Z,24.77
2017-12-12T21:16:55.536Z,24.45
2017-12-12T21:19:23.115Z,24.70
2017-12-12T21:21:50.586Z,22.55
2017-12-12T21:24:18.073Z,24.87
2017-12-12T21:26:45.524Z,27.33
2017-12-12T21:29:13.877Z,26.48
2017-12-12T21:31:41.420Z,25.80
2017-12-12T21:34:09.644Z,26.12
2017-12-12T21:36:37.120Z,27.65
2017-12-12T21:39:04.663Z,26.00
2017-12-12T21:41:32.129Z,27.08
2017-12-12T21:44:00.361Z,25.45
2017-12-12T21:46:27.912Z,26.90
2017-12-12T21:48:55.365Z,25.20
2017-12-12T21:51:23.600Z,26.83
2017-12-12T21:53:51.152Z,25.58
2017-12-12T21:56:18.613Z,27.17
2017-12-12T21:58:46.876Z,26.90
2017-12-12T22:01:15.088Z,26.62
2017-12-12T22:03:42.558Z,28.77
2017-12-12T22:06:10.772Z,28.10
2017-12-12T22:08:38.243Z,27.23
2017-12-12T22:11:05.784Z,27.50
2017-12-12T22:13:34.013Z,28.52
2017-12-12T22:16:01.493Z,28.40
2017-12-12T22:18:29.724Z,30.77
2017-12-12T22:20:57.284Z,30.60
2017-12-12T22:23:24.764Z,26.55
2017-12-12T22:25:52.220Z,31.23
2017-12-12T22:28:19.722Z,28.70
2017-12-12T22:30:47.960Z,29.73
2017-12-12T22:33:15.510Z,28.35
2017-12-12T22:35:42.966Z,31.83
2017-12-12T22:38:11.198Z,30.23
2017-12-12T22:40:38.663Z,29.92
2017-12-12T22:43:06.204Z,29.60
2017-12-12T22:45:33.656Z,34.22
2017-12-12T22:48:01.900Z,33.33
2017-12-12T22:50:30.149Z,31.90
2017-12-12T22:52:57.609Z,31.10
2017-12-12T22:55:25.840Z,33.40
2017-12-12T23:00:49.495Z,31.33
2017-12-12T23:03:17.182Z,30.65
2017-12-12T23:05:44.662Z,31.10
2017-12-12T23:08:12.140Z,32.53
2017-12-12T23:10:39.602Z,30.95
2017-12-12T23:13:07.939Z,28.42
2017-12-12T23:15:35.396Z,30.55
2017-12-12T23:18:03.624Z,27.33
2017-12-12T23:20:31.118Z,27.98
2017-12-12T23:22:58.642Z,27.17
2017-12-12T23:25:26.892Z,26.90
2017-12-12T23:27:54.358Z,25.27
2017-12-12T23:30:21.837Z,25.27
2017-12-12T23:32:49.317Z,27.17
2017-12-12T23:35:17.577Z,22.42
2017-12-12T23:37:45.035Z,25.20
2017-12-12T23:40:13.260Z,23.15
2017-12-12T23:42:40.831Z,22.87
2017-12-12T23:45:08.394Z,27.02
2017-12-12T23:47:35.844Z,25.62
2017-12-12T23:50:03.349Z,21.70
2017-12-12T23:52:30.808Z,21.95
2017-12-12T23:54:59.054Z,22.00
2017-12-12T23:57:26.596Z,23.95
2017-12-12T23:59:54.154Z,22.85
